sensor_id;sensor_type;location;lat;lon;timestamp;P1;durP1;ratioP1;P2;durP2;ratioP2
50337;SDS011;46221;51.178;5.900;2023-02-10T00:01:26;10.70;;;8.10;;
50337;SDS011;46221;51.178;5.900;2023-02-10T00:03:53;11.45;;;7.88;;
50337;SDS011;46221;51.178;5.900;2023-02-10T00:06:21;13.07;;;8.10;;
50337;SDS011;46221;51.178;5.900;2023-02-10T00:08:56;11.82;;;7.68;;
50337;SDS011;46221;51.178;5.900;2023-02-10T00:11:25;12.30;;;8.40;;
50337;SDS011;46221;51.178;5.900;2023-02-10T00:14:12;10.98;;;8.45;;
50337;SDS011;46221;51.178;5.900;2023-02-10T00:16:40;10.57;;;8.13;;
50337;SDS011;46221;51.178;5.900;2023-02-10T00:19:07;13.98;;;8.25;;
50337;SDS011;46221;51.178;5.900;2023-02-10T00:21:34;10.43;;;7.97;;
50337;SDS011;46221;51.178;5.900;2023-02-10T00:24:00;18.27;;;9.80;;
50337;SDS011;46221;51.178;5.900;2023-02-10T00:26:28;12.52;;;8.68;;
50337;SDS011;46221;51.178;5.900;2023-02-10T00:28:55;9.93;;;7.65;;
50337;SDS011;46221;51.178;5.900;2023-02-10T00:31:21;11.38;;;8.15;;
50337;SDS011;46221;51.178;5.900;2023-02-10T00:33:48;10.60;;;7.75;;
50337;SDS011;46221;51.178;5.900;2023-02-10T00:36:15;11.52;;;8.23;;
50337;SDS011;46221;51.178;5.900;2023-02-10T00:38:41;10.73;;;7.75;;
50337;SDS011;46221;51.178;5.900;2023-02-10T00:41:09;9.63;;;7.07;;
50337;SDS011;46221;51.178;5.900;2023-02-10T00:43:38;10.27;;;7.68;;
50337;SDS011;46221;51.178;5.900;2023-02-10T00:46:06;13.32;;;8.15;;
50337;SDS011;46221;51.178;5.900;2023-02-10T00:48:33;11.45;;;8.10;;
50337;SDS011;46221;51.178;5.900;2023-02-10T00:50:59;9.32;;;7.43;;
50337;SDS011;46221;51.178;5.900;2023-02-10T00:53:26;11.73;;;9.00;;
50337;SDS011;46221;51.178;5.900;2023-02-10T00:55:53;8.90;;;6.82;;
50337;SDS011;46221;51.178;5.900;2023-02-10T00:58:22;11.50;;;8.00;;
50337;SDS011;46221;51.178;5.900;2023-02-10T01:00:48;10.93;;;7.22;;
50337;SDS011;46221;51.178;5.900;2023-02-10T01:03:15;10.63;;;7.35;;
50337;SDS011;46221;51.178;5.900;2023-02-10T01:05:41;11.02;;;8.13;;
50337;SDS011;46221;51.178;5.900;2023-02-10T01:08:08;13.00;;;8.82;;
50337;SDS011;46221;51.178;5.900;2023-02-10T01:10:34;11.30;;;8.27;;
50337;SDS011;46221;51.178;5.900;2023-02-10T01:13:02;11.80;;;8.50;;
50337;SDS011;46221;51.178;5.900;2023-02-10T01:15:29;12.77;;;8.43;;
50337;SDS011;46221;51.178;5.900;2023-02-10T01:17:55;11.30;;;8.45;;
50337;SDS011;46221;51.178;5.900;2023-02-10T01:20:23;11.98;;;7.80;;
50337;SDS011;46221;51.178;5.900;2023-02-10T01:22:50;9.63;;;7.15;;
50337;SDS011;46221;51.178;5.900;2023-02-10T01:25:17;11.45;;;7.75;;
50337;SDS011;46221;51.178;5.900;2023-02-10T01:27:43;11.32;;;7.90;;
50337;SDS011;46221;51.178;5.900;2023-02-10T01:30:10;11.30;;;7.40;;
50337;SDS011;46221;51.178;5.900;2023-02-10T01:32:37;11.57;;;8.05;;
50337;SDS011;46221;51.178;5.900;2023-02-10T01:35:03;11.35;;;8.07;;
50337;SDS011;46221;51.178;5.900;2023-02-10T01:37:30;11.48;;;7.78;;
50337;SDS011;46221;51.178;5.900;2023-02-10T01:39:56;10.38;;;7.97;;
50337;SDS011;46221;51.178;5.900;2023-02-10T01:42:23;10.57;;;8.18;;
50337;SDS011;46221;51.178;5.900;2023-02-10T01:47:16;10.10;;;7.40;;
50337;SDS011;46221;51.178;5.900;2023-02-10T01:49:44;11.45;;;8.43;;
50337;SDS011;46221;51.178;5.900;2023-02-10T01:52:16;11.43;;;8.02;;
50337;SDS011;46221;51.178;5.900;2023-02-10T01:54:49;11.00;;;7.93;;
50337;SDS011;46221;51.178;5.900;2023-02-10T01:57:20;10.60;;;7.90;;
50337;SDS011;46221;51.178;5.900;2023-02-10T01:59:50;11.55;;;7.93;;
50337;SDS011;46221;51.178;5.900;2023-02-10T02:02:17;10.60;;;7.93;;
50337;SDS011;46221;51.178;5.900;2023-02-10T02:04:51;11.27;;;8.00;;
50337;SDS011;46221;51.178;5.900;2023-02-10T02:07:21;10.07;;;7.78;;
50337;SDS011;46221;51.178;5.900;2023-02-10T02:09:51;9.45;;;7.47;;
50337;SDS011;46221;51.178;5.900;2023-02-10T02:18:02;12.68;;;8.35;;
50337;SDS011;46221;51.178;5.900;2023-02-10T02:20:58;12.43;;;8.98;;
50337;SDS011;46221;51.178;5.900;2023-02-10T02:26:54;13.05;;;8.40;;
50337;SDS011;46221;51.178;5.900;2023-02-10T02:31:57;11.53;;;8.43;;
50337;SDS011;46221;51.178;5.900;2023-02-10T02:34:44;13.63;;;9.18;;
50337;SDS011;46221;51.178;5.900;2023-02-10T02:37:18;12.25;;;8.85;;
50337;SDS011;46221;51.178;5.900;2023-02-10T02:39:52;12.52;;;9.27;;
50337;SDS011;46221;51.178;5.900;2023-02-10T02:42:23;12.02;;;8.38;;
50337;SDS011;46221;51.178;5.900;2023-02-10T02:44:57;12.85;;;9.27;;
50337;SDS011;46221;51.178;5.900;2023-02-10T02:50:35;12.10;;;8.43;;
50337;SDS011;46221;51.178;5.900;2023-02-10T02:59:15;11.50;;;8.63;;
50337;SDS011;46221;51.178;5.900;2023-02-10T03:01:56;12.15;;;8.68;;
50337;SDS011;46221;51.178;5.900;2023-02-10T03:04:26;11.55;;;8.93;;
50337;SDS011;46221;51.178;5.900;2023-02-10T03:06:55;11.60;;;9.00;;
50337;SDS011;46221;51.178;5.900;2023-02-10T03:09:21;13.10;;;9.48;;
50337;SDS011;46221;51.178;5.900;2023-02-10T03:11:48;11.95;;;8.88;;
50337;SDS011;46221;51.178;5.900;2023-02-10T03:14:14;12.75;;;9.50;;
50337;SDS011;46221;51.178;5.900;2023-02-10T03:16:41;12.50;;;8.85;;
50337;SDS011;46221;51.178;5.900;2023-02-10T03:19:07;10.40;;;8.75;;
50337;SDS011;46221;51.178;5.900;2023-02-10T03:21:34;12.40;;;9.07;;
50337;SDS011;46221;51.178;5.900;2023-02-10T03:24:00;13.10;;;9.68;;
50337;SDS011;46221;51.178;5.900;2023-02-10T03:26:27;12.68;;;10.02;;
50337;SDS011;46221;51.178;5.900;2023-02-10T03:28:54;13.50;;;9.00;;
50337;SDS011;46221;51.178;5.900;2023-02-10T03:31:21;12.38;;;9.40;;
50337;SDS011;46221;51.178;5.900;2023-02-10T03:33:48;13.70;;;9.75;;
50337;SDS011;46221;51.178;5.900;2023-02-10T03:36:15;13.07;;;9.30;;
50337;SDS011;46221;51.178;5.900;2023-02-10T03:38:41;11.45;;;8.90;;
50337;SDS011;46221;51.178;5.900;2023-02-10T03:41:08;13.63;;;9.82;;
50337;SDS011;46221;51.178;5.900;2023-02-10T03:43:34;14.05;;;9.65;;
50337;SDS011;46221;51.178;5.900;2023-02-10T03:46:02;13.85;;;9.15;;
50337;SDS011;46221;51.178;5.900;2023-02-10T03:48:30;12.90;;;9.43;;
50337;SDS011;46221;51.178;5.900;2023-02-10T03:51:00;11.27;;;8.80;;
50337;SDS011;46221;51.178;5.900;2023-02-10T03:53:28;13.52;;;10.30;;
50337;SDS011;46221;51.178;5.900;2023-02-10T03:55:55;12.05;;;9.25;;
50337;SDS011;46221;51.178;5.900;2023-02-10T03:58:22;13.45;;;9.77;;
50337;SDS011;46221;51.178;5.900;2023-02-10T04:00:49;11.85;;;8.93;;
50337;SDS011;46221;51.178;5.900;2023-02-10T04:03:15;11.80;;;8.73;;
50337;SDS011;46221;51.178;5.900;2023-02-10T04:05:42;12.65;;;9.00;;
50337;SDS011;46221;51.178;5.900;2023-02-10T04:08:08;12.68;;;9.20;;
50337;SDS011;46221;51.178;5.900;2023-02-10T04:10:35;11.77;;;9.27;;
50337;SDS011;46221;51.178;5.900;2023-02-10T04:13:02;12.55;;;9.50;;
50337;SDS011;46221;51.178;5.900;2023-02-10T04:15:28;12.25;;;9.57;;
50337;SDS011;46221;51.178;5.900;2023-02-10T04:17:55;13.20;;;9.18;;
50337;SDS011;46221;51.178;5.900;2023-02-10T04:20:23;11.70;;;8.57;;
50337;SDS011;46221;51.178;5.900;2023-02-10T04:22:50;12.68;;;9.27;;
50337;SDS011;46221;51.178;5.900;2023-02-10T04:25:17;12.77;;;9.38;;
50337;SDS011;46221;51.178;5.900;2023-02-10T04:27:44;11.90;;;9.02;;
50337;SDS011;46221;51.178;5.900;2023-02-10T04:30:10;13.35;;;9.98;;
50337;SDS011;46221;51.178;5.900;2023-02-10T04:32:37;11.35;;;8.52;;
50337;SDS011;46221;51.178;5.900;2023-02-10T04:35:03;12.55;;;8.65;;
50337;SDS011;46221;51.178;5.900;2023-02-10T04:37:30;13.20;;;8.65;;
50337;SDS011;46221;51.178;5.900;2023-02-10T04:39:57;11.85;;;8.90;;
50337;SDS011;46221;51.178;5.900;2023-02-10T04:42:23;12.88;;;9.50;;
50337;SDS011;46221;51.178;5.900;2023-02-10T04:44:56;12.77;;;9.90;;
50337;SDS011;46221;51.178;5.900;2023-02-10T04:47:27;13.65;;;9.43;;
50337;SDS011;46221;51.178;5.900;2023-02-10T04:49:54;11.90;;;8.95;;
50337;SDS011;46221;51.178;5.900;2023-02-10T04:52:20;13.35;;;9.57;;
50337;SDS011;46221;51.178;5.900;2023-02-10T04:54:47;12.82;;;9.95;;
50337;SDS011;46221;51.178;5.900;2023-02-10T04:57:13;11.45;;;9.27;;
50337;SDS011;46221;51.178;5.900;2023-02-10T04:59:40;11.55;;;8.80;;
50337;SDS011;46221;51.178;5.900;2023-02-10T05:02:06;12.95;;;9.35;;
50337;SDS011;46221;51.178;5.900;2023-02-10T05:04:33;13.20;;;9.63;;
50337;SDS011;46221;51.178;5.900;2023-02-10T05:06:59;12.48;;;8.75;;
50337;SDS011;46221;51.178;5.900;2023-02-10T05:09:26;12.02;;;9.30;;
50337;SDS011;46221;51.178;5.900;2023-02-10T05:11:53;12.18;;;9.38;;
50337;SDS011;46221;51.178;5.900;2023-02-10T05:14:20;12.88;;;9.45;;
50337;SDS011;46221;51.178;5.900;2023-02-10T05:16:46;12.55;;;8.88;;
50337;SDS011;46221;51.178;5.900;2023-02-10T05:19:12;13.65;;;9.98;;
50337;SDS011;46221;51.178;5.900;2023-02-10T05:21:39;12.32;;;9.18;;
50337;SDS011;46221;51.178;5.900;2023-02-10T05:24:05;12.55;;;9.38;;
50337;SDS011;46221;51.178;5.900;2023-02-10T05:26:32;12.98;;;9.57;;
50337;SDS011;46221;51.178;5.900;2023-02-10T05:28:58;13.30;;;9.70;;
50337;SDS011;46221;51.178;5.900;2023-02-10T05:31:25;12.27;;;8.85;;
50337;SDS011;46221;51.178;5.900;2023-02-10T05:33:51;14.27;;;9.75;;
50337;SDS011;46221;51.178;5.900;2023-02-10T05:36:19;14.90;;;9.98;;
50337;SDS011;46221;51.178;5.900;2023-02-10T05:38:47;14.75;;;9.57;;
50337;SDS011;46221;51.178;5.900;2023-02-10T05:41:32;12.00;;;9.23;;
50337;SDS011;46221;51.178;5.900;2023-02-10T05:44:01;13.25;;;9.60;;
50337;SDS011;46221;51.178;5.900;2023-02-10T05:46:27;14.32;;;9.70;;
50337;SDS011;46221;51.178;5.900;2023-02-10T05:48:54;14.75;;;10.23;;
50337;SDS011;46221;51.178;5.900;2023-02-10T05:51:20;13.55;;;8.93;;
50337;SDS011;46221;51.178;5.900;2023-02-10T05:53:46;13.23;;;8.75;;
50337;SDS011;46221;51.178;5.900;2023-02-10T05:56:13;11.63;;;9.00;;
50337;SDS011;46221;51.178;5.900;2023-02-10T05:58:39;12.63;;;9.13;;
50337;SDS011;46221;51.178;5.900;2023-02-10T06:01:07;14.32;;;8.98;;
50337;SDS011;46221;51.178;5.900;2023-02-10T06:03:34;14.45;;;9.18;;
50337;SDS011;46221;51.178;5.900;2023-02-10T06:06:01;12.98;;;9.00;;
50337;SDS011;46221;51.178;5.900;2023-02-10T06:08:28;12.63;;;9.18;;
50337;SDS011;46221;51.178;5.900;2023-02-10T06:10:54;13.13;;;8.80;;
50337;SDS011;46221;51.178;5.900;2023-02-10T06:13:21;11.82;;;8.68;;
50337;SDS011;46221;51.178;5.900;2023-02-10T06:15:48;13.05;;;8.57;;
50337;SDS011;46221;51.178;5.900;2023-02-10T06:18:15;14.10;;;9.18;;
50337;SDS011;46221;51.178;5.900;2023-02-10T06:20:41;16.58;;;10.50;;
50337;SDS011;46221;51.178;5.900;2023-02-10T06:23:08;13.60;;;8.95;;
50337;SDS011;46221;51.178;5.900;2023-02-10T06:25:34;13.50;;;9.60;;
50337;SDS011;46221;51.178;5.900;2023-02-10T06:28:02;16.05;;;9.82;;
50337;SDS011;46221;51.178;5.900;2023-02-10T06:30:29;12.80;;;9.25;;
50337;SDS011;46221;51.178;5.900;2023-02-10T06:32:56;12.77;;;8.40;;
50337;SDS011;46221;51.178;5.900;2023-02-10T06:35:23;15.73;;;10.25;;
50337;SDS011;46221;51.178;5.900;2023-02-10T06:37:49;12.45;;;9.15;;
50337;SDS011;46221;51.178;5.900;2023-02-10T06:40:16;13.68;;;9.73;;
50337;SDS011;46221;51.178;5.900;2023-02-10T06:42:42;14.10;;;10.25;;
50337;SDS011;46221;51.178;5.900;2023-02-10T06:45:09;16.30;;;10.00;;
50337;SDS011;46221;51.178;5.900;2023-02-10T06:47:35;13.77;;;9.07;;
50337;SDS011;46221;51.178;5.900;2023-02-10T06:50:02;13.02;;;9.60;;
50337;SDS011;46221;51.178;5.900;2023-02-10T06:52:29;16.30;;;10.30;;
50337;SDS011;46221;51.178;5.900;2023-02-10T06:54:57;14.05;;;9.43;;
50337;SDS011;46221;51.178;5.900;2023-02-10T06:57:24;14.85;;;9.88;;
50337;SDS011;46221;51.178;5.900;2023-02-10T06:59:52;16.45;;;9.63;;
50337;SDS011;46221;51.178;5.900;2023-02-10T07:02:19;15.95;;;9.50;;
50337;SDS011;46221;51.178;5.900;2023-02-10T07:04:45;16.92;;;9.88;;
50337;SDS011;46221;51.178;5.900;2023-02-10T07:07:12;17.05;;;9.82;;
50337;SDS011;46221;51.178;5.900;2023-02-10T07:09:38;15.25;;;9.38;;
50337;SDS011;46221;51.178;5.900;2023-02-10T07:12:05;13.70;;;9.63;;
50337;SDS011;46221;51.178;5.900;2023-02-10T07:14:31;16.73;;;9.95;;
50337;SDS011;46221;51.178;5.900;2023-02-10T07:16:58;19.33;;;9.80;;
50337;SDS011;46221;51.178;5.900;2023-02-10T07:19:24;14.18;;;9.25;;
50337;SDS011;46221;51.178;5.900;2023-02-10T07:21:51;14.65;;;9.30;;
50337;SDS011;46221;51.178;5.900;2023-02-10T07:24:17;15.13;;;9.38;;
50337;SDS011;46221;51.178;5.900;2023-02-10T07:26:44;16.60;;;9.75;;
50337;SDS011;46221;51.178;5.900;2023-02-10T07:29:10;18.50;;;9.07;;
50337;SDS011;46221;51.178;5.900;2023-02-10T07:31:37;14.55;;;8.93;;
50337;SDS011;46221;51.178;5.900;2023-02-10T07:34:03;16.23;;;9.77;;
50337;SDS011;46221;51.178;5.900;2023-02-10T07:36:30;15.40;;;9.25;;
50337;SDS011;46221;51.178;5.900;2023-02-10T07:38:57;16.80;;;8.85;;
50337;SDS011;46221;51.178;5.900;2023-02-10T07:41:23;18.08;;;9.18;;
50337;SDS011;46221;51.178;5.900;2023-02-10T07:43:50;14.43;;;8.65;;
50337;SDS011;46221;51.178;5.900;2023-02-10T07:46:17;19.05;;;8.88;;
50337;SDS011;46221;51.178;5.900;2023-02-10T07:48:43;16.85;;;9.38;;
50337;SDS011;46221;51.178;5.900;2023-02-10T07:51:09;13.45;;;8.68;;
50337;SDS011;46221;51.178;5.900;2023-02-10T07:53:36;14.85;;;9.43;;
50337;SDS011;46221;51.178;5.900;2023-02-10T07:56:05;14.98;;;9.52;;
50337;SDS011;46221;51.178;5.900;2023-02-10T07:58:32;23.70;;;9.23;;
50337;SDS011;46221;51.178;5.900;2023-02-10T08:00:58;28.42;;;9.77;;
50337;SDS011;46221;51.178;5.900;2023-02-10T08:03:25;20.15;;;10.32;;
50337;SDS011;46221;51.178;5.900;2023-02-10T08:05:51;14.38;;;9.27;;
50337;SDS011;46221;51.178;5.900;2023-02-10T08:08:18;13.77;;;9.43;;
50337;SDS011;46221;51.178;5.900;2023-02-10T08:10:44;19.45;;;9.63;;
50337;SDS011;46221;51.178;5.900;2023-02-10T08:13:11;15.93;;;9.32;;
50337;SDS011;46221;51.178;5.900;2023-02-10T08:15:38;17.00;;;9.77;;
50337;SDS011;46221;51.178;5.900;2023-02-10T08:18:04;16.30;;;9.70;;
50337;SDS011;46221;51.178;5.900;2023-02-10T08:20:30;15.55;;;9.48;;
50337;SDS011;46221;51.178;5.900;2023-02-10T08:22:57;15.63;;;8.68;;
50337;SDS011;46221;51.178;5.900;2023-02-10T08:25:27;16.70;;;10.40;;
50337;SDS011;46221;51.178;5.900;2023-02-10T08:27:53;19.48;;;9.63;;
50337;SDS011;46221;51.178;5.900;2023-02-10T08:30:20;17.05;;;9.52;;
50337;SDS011;46221;51.178;5.900;2023-02-10T08:32:47;17.95;;;10.82;;
50337;SDS011;46221;51.178;5.900;2023-02-10T08:35:15;18.58;;;10.55;;
50337;SDS011;46221;51.178;5.900;2023-02-10T08:37:41;16.55;;;9.57;;
50337;SDS011;46221;51.178;5.900;2023-02-10T08:40:08;17.83;;;10.48;;
50337;SDS011;46221;51.178;5.900;2023-02-10T08:42:35;15.95;;;10.20;;
50337;SDS011;46221;51.178;5.900;2023-02-10T08:45:02;20.20;;;10.60;;
50337;SDS011;46221;51.178;5.900;2023-02-10T08:47:29;17.98;;;10.52;;
50337;SDS011;46221;51.178;5.900;2023-02-10T08:49:55;19.38;;;11.05;;
50337;SDS011;46221;51.178;5.900;2023-02-10T08:52:22;16.05;;;11.05;;
50337;SDS011;46221;51.178;5.900;2023-02-10T08:54:49;18.10;;;11.45;;
50337;SDS011;46221;51.178;5.900;2023-02-10T08:57:16;17.70;;;11.02;;
50337;SDS011;46221;51.178;5.900;2023-02-10T08:59:43;15.70;;;10.70;;
50337;SDS011;46221;51.178;5.900;2023-02-10T09:02:12;17.10;;;12.48;;
50337;SDS011;46221;51.178;5.900;2023-02-10T09:04:39;17.88;;;11.60;;
50337;SDS011;46221;51.178;5.900;2023-02-10T09:07:07;17.70;;;11.18;;
50337;SDS011;46221;51.178;5.900;2023-02-10T09:09:36;21.17;;;11.95;;
50337;SDS011;46221;51.178;5.900;2023-02-10T09:12:04;19.90;;;12.80;;
50337;SDS011;46221;51.178;5.900;2023-02-10T09:14:31;16.58;;;12.60;;
50337;SDS011;46221;51.178;5.900;2023-02-10T09:16:58;21.80;;;13.15;;
50337;SDS011;46221;51.178;5.900;2023-02-10T09:19:24;19.45;;;13.18;;
50337;SDS011;46221;51.178;5.900;2023-02-10T09:21:51;21.73;;;12.65;;
50337;SDS011;46221;51.178;5.900;2023-02-10T09:24:17;18.15;;;12.93;;
50337;SDS011;46221;51.178;5.900;2023-02-10T09:26:44;17.30;;;12.60;;
50337;SDS011;46221;51.178;5.900;2023-02-10T09:29:10;19.23;;;12.07;;
50337;SDS011;46221;51.178;5.900;2023-02-10T09:31:38;17.42;;;12.60;;
50337;SDS011;46221;51.178;5.900;2023-02-10T09:34:05;22.10;;;13.40;;
50337;SDS011;46221;51.178;5.900;2023-02-10T09:36:32;17.65;;;12.40;;
50337;SDS011;46221;51.178;5.900;2023-02-10T09:38:58;21.33;;;12.80;;
50337;SDS011;46221;51.178;5.900;2023-02-10T09:54:55;17.63;;;12.38;;
50337;SDS011;46221;51.178;5.900;2023-02-10T09:57:35;18.17;;;13.25;;
50337;SDS011;46221;51.178;5.900;2023-02-10T10:00:05;20.15;;;12.95;;
50337;SDS011;46221;51.178;5.900;2023-02-10T10:02:47;19.13;;;12.93;;
50337;SDS011;46221;51.178;5.900;2023-02-10T10:06:04;20.80;;;13.27;;
50337;SDS011;46221;51.178;5.900;2023-02-10T10:08:10;25.15;;;15.57;;
50337;SDS011;46221;51.178;5.900;2023-02-10T10:10:45;20.60;;;13.77;;
50337;SDS011;46221;51.178;5.900;2023-02-10T10:13:18;19.42;;;14.13;;
50337;SDS011;46221;51.178;5.900;2023-02-10T10:21:31;26.02;;;13.57;;
50337;SDS011;46221;51.178;5.900;2023-02-10T10:24:13;18.80;;;13.70;;
50337;SDS011;46221;51.178;5.900;2023-02-10T10:32:15;21.88;;;15.00;;
50337;SDS011;46221;51.178;5.900;2023-02-10T10:34:58;24.55;;;15.75;;
50337;SDS011;46221;51.178;5.900;2023-02-10T10:37:27;22.20;;;15.27;;
50337;SDS011;46221;51.178;5.900;2023-02-10T10:40:03;24.80;;;16.10;;
50337;SDS011;46221;51.178;5.900;2023-02-10T10:42:51;20.38;;;15.45;;
50337;SDS011;46221;51.178;5.900;2023-02-10T10:45:35;20.00;;;15.02;;
50337;SDS011;46221;51.178;5.900;2023-02-10T10:48:11;24.67;;;16.50;;
50337;SDS011;46221;51.178;5.900;2023-02-10T10:50:42;23.88;;;16.08;;
50337;SDS011;46221;51.178;5.900;2023-02-10T10:53:16;24.15;;;16.45;;
50337;SDS011;46221;51.178;5.900;2023-02-10T10:55:49;22.15;;;15.15;;
50337;SDS011;46221;51.178;5.900;2023-02-10T10:58:27;22.33;;;15.95;;
50337;SDS011;46221;51.178;5.900;2023-02-10T11:00:57;22.23;;;16.13;;
50337;SDS011;46221;51.178;5.900;2023-02-10T11:03:26;21.52;;;15.70;;
50337;SDS011;46221;51.178;5.900;2023-02-10T11:08:36;21.27;;;16.42;;
50337;SDS011;46221;51.178;5.900;2023-02-10T11:11:04;18.80;;;15.02;;
50337;SDS011;46221;51.178;5.900;2023-02-10T11:13:37;24.23;;;17.05;;
50337;SDS011;46221;51.178;5.900;2023-02-10T11:18:36;24.30;;;16.35;;
50337;SDS011;46221;51.178;5.900;2023-02-10T11:21:05;23.70;;;16.90;;
50337;SDS011;46221;51.178;5.900;2023-02-10T11:23:55;25.90;;;17.33;;
50337;SDS011;46221;51.178;5.900;2023-02-10T11:26:24;21.75;;;16.60;;
50337;SDS011;46221;51.178;5.900;2023-02-10T11:28:53;24.50;;;17.23;;
50337;SDS011;46221;51.178;5.900;2023-02-10T11:31:30;26.10;;;17.70;;
50337;SDS011;46221;51.178;5.900;2023-02-10T11:34:02;21.95;;;16.70;;
50337;SDS011;46221;51.178;5.900;2023-02-10T11:36:46;24.35;;;16.80;;
50337;SDS011;46221;51.178;5.900;2023-02-10T11:39:22;24.60;;;17.48;;
50337;SDS011;46221;51.178;5.900;2023-02-10T11:41:51;23.00;;;17.90;;
50337;SDS011;46221;51.178;5.900;2023-02-10T11:44:29;24.20;;;17.63;;
50337;SDS011;46221;51.178;5.900;2023-02-10T11:47:01;24.10;;;17.70;;
50337;SDS011;46221;51.178;5.900;2023-02-10T11:49:33;22.23;;;17.10;;
50337;SDS011;46221;51.178;5.900;2023-02-10T11:52:03;22.80;;;17.67;;
50337;SDS011;46221;51.178;5.900;2023-02-10T11:54:30;22.88;;;16.40;;
50337;SDS011;46221;51.178;5.900;2023-02-10T12:00:02;23.20;;;16.75;;
50337;SDS011;46221;51.178;5.900;2023-02-10T12:11:08;22.42;;;17.80;;
50337;SDS011;46221;51.178;5.900;2023-02-10T12:22:11;20.73;;;16.63;;
50337;SDS011;46221;51.178;5.900;2023-02-10T12:24:54;20.52;;;16.13;;
50337;SDS011;46221;51.178;5.900;2023-02-10T12:27:47;22.73;;;15.90;;
50337;SDS011;46221;51.178;5.900;2023-02-10T12:30:27;23.17;;;16.65;;
50337;SDS011;46221;51.178;5.900;2023-02-10T12:33:09;22.30;;;16.67;;
50337;SDS011;46221;51.178;5.900;2023-02-10T12:39:01;23.23;;;16.48;;
50337;SDS011;46221;51.178;5.900;2023-02-10T12:41:49;20.63;;;15.30;;
50337;SDS011;46221;51.178;5.900;2023-02-10T12:46:59;20.20;;;15.10;;
50337;SDS011;46221;51.178;5.900;2023-02-10T12:49:52;20.38;;;15.18;;
50337;SDS011;46221;51.178;5.900;2023-02-10T12:52:53;19.80;;;16.05;;
50337;SDS011;46221;51.178;5.900;2023-02-10T12:55:34;19.15;;;14.93;;
50337;SDS011;46221;51.178;5.900;2023-02-10T12:58:27;23.65;;;15.23;;
50337;SDS011;46221;51.178;5.900;2023-02-10T13:01:04;21.15;;;15.50;;
50337;SDS011;46221;51.178;5.900;2023-02-10T13:03:38;16.90;;;13.68;;
50337;SDS011;46221;51.178;5.900;2023-02-10T13:06:17;17.85;;;14.27;;
50337;SDS011;46221;51.178;5.900;2023-02-10T13:09:01;19.63;;;14.32;;
50337;SDS011;46221;51.178;5.900;2023-02-10T13:11:41;18.80;;;13.30;;
50337;SDS011;46221;51.178;5.900;2023-02-10T13:14:14;16.75;;;13.00;;
50337;SDS011;46221;51.178;5.900;2023-02-10T13:16:51;17.13;;;13.23;;
50337;SDS011;46221;51.178;5.900;2023-02-10T13:28:27;15.80;;;12.20;;
50337;SDS011;46221;51.178;5.900;2023-02-10T13:31:07;15.43;;;11.90;;
50337;SDS011;46221;51.178;5.900;2023-02-10T13:33:45;16.33;;;12.65;;
50337;SDS011;46221;51.178;5.900;2023-02-10T13:36:19;12.95;;;11.07;;
50337;SDS011;46221;51.178;5.900;2023-02-10T13:38:58;15.50;;;11.43;;
50337;SDS011;46221;51.178;5.900;2023-02-10T13:41:32;16.67;;;12.05;;
50337;SDS011;46221;51.178;5.900;2023-02-10T13:44:25;18.83;;;11.48;;
50337;SDS011;46221;51.178;5.900;2023-02-10T13:47:16;14.57;;;11.63;;
50337;SDS011;46221;51.178;5.900;2023-02-10T13:49:59;15.98;;;10.82;;
50337;SDS011;46221;51.178;5.900;2023-02-10T13:52:29;14.27;;;10.77;;
50337;SDS011;46221;51.178;5.900;2023-02-10T13:57:37;15.70;;;11.43;;
50337;SDS011;46221;51.178;5.900;2023-02-10T14:00:10;15.32;;;10.98;;
50337;SDS011;46221;51.178;5.900;2023-02-10T14:02:39;14.50;;;11.07;;
50337;SDS011;46221;51.178;5.900;2023-02-10T14:05:20;14.02;;;10.80;;
50337;SDS011;46221;51.178;5.900;2023-02-10T14:07:52;13.48;;;9.93;;
50337;SDS011;46221;51.178;5.900;2023-02-10T14:15:36;14.75;;;10.63;;
50337;SDS011;46221;51.178;5.900;2023-02-10T14:18:19;13.85;;;9.35;;
50337;SDS011;46221;51.178;5.900;2023-02-10T14:20:56;15.35;;;10.40;;
50337;SDS011;46221;51.178;5.900;2023-02-10T14:23:26;15.15;;;10.25;;
50337;SDS011;46221;51.178;5.900;2023-02-10T14:25:55;13.57;;;9.55;;
50337;SDS011;46221;51.178;5.900;2023-02-10T14:28:28;14.27;;;9.75;;
50337;SDS011;46221;51.178;5.900;2023-02-10T14:31:11;14.38;;;10.30;;
50337;SDS011;46221;51.178;5.900;2023-02-10T14:33:40;11.55;;;9.23;;
50337;SDS011;46221;51.178;5.900;2023-02-10T14:36:14;15.27;;;10.00;;
50337;SDS011;46221;51.178;5.900;2023-02-10T14:38:44;14.55;;;9.85;;
50337;SDS011;46221;51.178;5.900;2023-02-10T14:41:16;13.25;;;10.20;;
50337;SDS011;46221;51.178;5.900;2023-02-10T14:43:46;13.63;;;10.27;;
50337;SDS011;46221;51.178;5.900;2023-02-10T14:46:22;13.43;;;10.27;;
50337;SDS011;46221;51.178;5.900;2023-02-10T14:48:56;12.23;;;9.80;;
50337;SDS011;46221;51.178;5.900;2023-02-10T14:51:26;13.10;;;9.88;;
50337;SDS011;46221;51.178;5.900;2023-02-10T14:53:54;14.43;;;10.05;;
50337;SDS011;46221;51.178;5.900;2023-02-10T14:56:25;15.60;;;10.50;;
50337;SDS011;46221;51.178;5.900;2023-02-10T14:58:53;13.80;;;9.85;;
50337;SDS011;46221;51.178;5.900;2023-02-10T15:01:24;13.13;;;9.73;;
50337;SDS011;46221;51.178;5.900;2023-02-10T15:03:54;12.48;;;9.13;;
50337;SDS011;46221;51.178;5.900;2023-02-10T15:06:25;14.43;;;9.60;;
50337;SDS011;46221;51.178;5.900;2023-02-10T15:08:59;14.43;;;10.25;;
50337;SDS011;46221;51.178;5.900;2023-02-10T15:11:31;13.90;;;9.70;;
50337;SDS011;46221;51.178;5.900;2023-02-10T15:17:04;12.25;;;9.88;;
50337;SDS011;46221;51.178;5.900;2023-02-10T15:19:34;17.70;;;10.27;;
50337;SDS011;46221;51.178;5.900;2023-02-10T15:22:01;12.98;;;10.07;;
50337;SDS011;46221;51.178;5.900;2023-02-10T15:24:30;13.68;;;10.35;;
50337;SDS011;46221;51.178;5.900;2023-02-10T15:27:12;13.48;;;9.77;;
50337;SDS011;46221;51.178;5.900;2023-02-10T15:29:41;14.55;;;10.32;;
50337;SDS011;46221;51.178;5.900;2023-02-10T15:32:15;13.38;;;10.25;;
50337;SDS011;46221;51.178;5.900;2023-02-10T15:34:51;13.30;;;10.43;;
50337;SDS011;46221;51.178;5.900;2023-02-10T15:37:20;12.77;;;10.07;;
50337;SDS011;46221;51.178;5.900;2023-02-10T15:39:56;14.75;;;10.60;;
50337;SDS011;46221;51.178;5.900;2023-02-10T15:42:28;12.70;;;9.93;;
50337;SDS011;46221;51.178;5.900;2023-02-10T15:44:59;11.30;;;9.02;;
50337;SDS011;46221;51.178;5.900;2023-02-10T15:47:53;11.57;;;9.25;;
50337;SDS011;46221;51.178;5.900;2023-02-10T15:50:20;13.07;;;9.75;;
50337;SDS011;46221;51.178;5.900;2023-02-10T15:52:47;14.27;;;10.43;;
50337;SDS011;46221;51.178;5.900;2023-02-10T15:55:19;13.82;;;10.30;;
50337;SDS011;46221;51.178;5.900;2023-02-10T15:57:46;17.60;;;11.68;;
50337;SDS011;46221;51.178;5.900;2023-02-10T16:02:47;15.52;;;11.38;;
50337;SDS011;46221;51.178;5.900;2023-02-10T16:05:14;14.55;;;10.55;;
50337;SDS011;46221;51.178;5.900;2023-02-10T16:07:41;14.35;;;10.73;;
50337;SDS011;46221;51.178;5.900;2023-02-10T16:10:19;16.83;;;10.35;;
50337;SDS011;46221;51.178;5.900;2023-02-10T16:12:51;17.35;;;11.45;;
50337;SDS011;46221;51.178;5.900;2023-02-10T16:15:21;17.23;;;11.65;;
50337;SDS011;46221;51.178;5.900;2023-02-10T16:17:50;13.95;;;10.70;;
50337;SDS011;46221;51.178;5.900;2023-02-10T16:20:20;13.88;;;10.48;;
50337;SDS011;46221;51.178;5.900;2023-02-10T16:22:48;15.73;;;10.40;;
50337;SDS011;46221;51.178;5.900;2023-02-10T16:25:16;14.30;;;10.40;;
50337;SDS011;46221;51.178;5.900;2023-02-10T16:27:44;13.75;;;10.10;;